David Provod

Chefscout - Slovacko
4 Apr 2027
Sonntag
Verarbeitung

Persönlichkeit

Anpassungsfähigkeit (4) Ehrgeiz (10) Kontroverse (3) Loyalität (1) Druck (4) Professionalität (15) Fairness (1) Temperament (12)

Profil

Trainerstil Demokratisch
Lizenz Kontinentale A
Entschlossenheit 3
Menschenführung 7
Motivation 5
Disziplin 8
Arbeitszufriedenheit
73%
Ermüdung
0%
Rolle Chefscout
Gehalt 23.7K p/W
Vertrag 14.03.2028

Leistung

Verhalten Gut
Trainingseffektivität
26%
Spielerentwicklung
15%
Verletzungsprävention
50%
Taktische Umsetzung
55%

Letzte Ereignisse

Nahm an einer Scouting-Besprechung teil jetzt
Nahm an einer Scouting-Besprechung teil jetzt
Nahm an einer Scouting-Besprechung teil jetzt
Nahm an einer Scouting-Besprechung teil jetzt
Spieler begutachtet jetzt
Spieler begutachtet jetzt
Spieler begutachtet 7T her
Spieler begutachtet 7T her

Aktuell beobachtet

139
Spieler Verein Status Fähigkeit Vertrauen Beobachtet Zuletzt beobachtet Letzte Stimme
Salah Mohsen El Masry Aktiv 121 / 102 40% 6 03.04.2027 -
Camillo Tavernelli Arezzo Aktiv 104 / 110 40% 3 03.04.2027 -
Bienvenue Kanakimana Zbrojovka Brno Aktiv 128 / 108 40% 10 02.04.2027 -
Stephen Amankona Aduana Stars Aktiv 87 / 83 40% 3 02.04.2027 -
Ben Ahmed Kohili Paradou Aktiv 117 / 114 40% 1 01.04.2027 -
Sam Nombe Milton Keynes Dons Aktiv 123 / 119 40% 5 30.03.2027 -
Xiscu Martínez Fleetwood Town Aktiv 110 / 95 40% 1 30.03.2027 -
Edarlyn Reyes Arsenal Tula Aktiv 119 / 112 40% 3 28.03.2027 -
Rivaldo Ngcobo Free State Stars Aktiv 114 / 116 40% 3 27.03.2027 -
Shokry Naguib Arab Contractors Aktiv 116 / 115 40% 1 27.03.2027 -
Rui Costa Port Vale Aktiv 125 / 116 40% 4 25.03.2027 -
John Okoye Ebuka Ittihad Aktiv 114 / 105 40% 3 24.03.2027 -
Harry Cornick AFC Wimbledon Aktiv 120 / 105 40% 4 24.03.2027 -
Luther Zwane Platinum Stars Aktiv 120 / 98 40% 2 22.03.2027 -
Martín Álvarez Barnsley Aktiv 114 / 98 40% 2 22.03.2027 -
Amos Inusah Wa All Stars Aktiv 124 / 114 40% 3 20.03.2027 -
Thomas Agyepong Berekum Chelsea Aktiv 81 / 98 40% 1 20.03.2027 -
Filip Kubala Banik Ostrava Aktiv 127 / 115 40% 3 19.03.2027 -
Matty Stevens AFC Wimbledon Aktiv 90 / 92 40% 6 17.03.2027 -
Shayne Lavery Cambridge United Aktiv 118 / 95 40% 1 17.03.2027 -
Daniel Vašulín Zbrojovka Brno Aktiv 124 / 111 40% 3 15.03.2027 -
Lewis McCann Fleetwood Town Aktiv 93 / 91 40% 1 14.03.2027 -
Seidu Basit Ashanti Gold Aktiv 93 / 93 40% 1 14.03.2027 -
Marko Božić Wisla Krakow Aktiv 111 / 112 40% 2 13.03.2027 -
Kenneth Ikugar MB Rouissat Aktiv 98 / 79 40% 4 13.03.2027 -
Jerónimo Porto Lapegüe Slask Aktiv 106 / 104 40% 5 12.03.2027 -
Jerome Karelse Golden Arrows Aktiv 88 / 89 40% 5 12.03.2027 -
Khaled Al-Nabris Ismaily Aktiv 95 / 85 40% 1 09.03.2027 -
Evidence Mokoena Platinum Stars Aktiv 85 / 92 40% 2 08.03.2027 -
Kagiso Malinga Bidvest Wits Aktiv 111 / 94 40% 3 07.03.2027 -
Kwame Opoku Asante Kotoko Aktiv 87 / 92 40% 1 07.03.2027 -
Marcus Browne AFC Wimbledon Aktiv 92 / 118 40% 2 06.03.2027 -
Tomáš Zlatohlávek Teplice Aktiv 116 / 116 40% 3 03.03.2027 -
Frédéric Maciel CSKA 1948 Aktiv 108 / 107 40% 2 27.02.2027 -
Peter Itodo Metalist Aktiv 118 / 117 40% 2 26.02.2027 -
Matěj Mikulenka Sigma Olomouc Aktiv 124 / 118 40% 4 25.02.2027 -
José Martínes CSKA 1948 Aktiv 109 / 110 40% 2 24.02.2027 -
Wandile Duba Bidvest Wits Aktiv 98 / 103 40% 3 22.02.2027 -
Aaron Drinan Swindon Town Aktiv 103 / 108 40% 1 21.02.2027 -
Amur Kalmykov Spartak Kostroma Aktiv 109 / 102 40% 3 17.02.2027 -
Danyil Alefirenko Chornomorets Aktiv 108 / 111 40% 4 15.02.2027 -
Duncan Watmore Rotherham United Aktiv 113 / 109 40% 1 15.02.2027 -
Abdallah Gning Banik Ostrava Aktiv 120 / 107 40% 2 14.02.2027 -
Anatole Abang USM Alger Aktiv 96 / 98 40% 1 14.02.2027 -
Fábio Tavares Newport County Aktiv 104 / 98 40% 4 12.02.2027 -
Alexandr Yushin Torpedo Moscow Aktiv 107 / 104 40% 2 11.02.2027 -
Vladimir Nikolov Slavia Sofia Aktiv 95 / 105 40% 1 11.02.2027 -
Václav Jurečka Banik Ostrava Aktiv 126 / 125 40% 4 07.02.2027 -
Martin Sekulić Ural Aktiv 106 / 110 40% 1 07.02.2027 -
Ebrima Singhateh Jablonec Abgelehnt 125 / 114 40% 2 05.02.2027 Mehr Infos nötig
Carlos Paraco Metalist Aktiv 123 / 109 40% 1 05.02.2027 -
Yeangel Montero Naxxar Lions Abgelehnt 90 / 105 40% 2 30.01.2027 Mehr Infos nötig
Maksym Voitikhovskyi Bukovyna Aktiv 95 / 105 40% 1 29.01.2027 -
Andrii Khoma Chornomorets Aktiv 101 / 101 40% 1 28.01.2027 -
Dani Gómez Zaragoza Aktiv 129 / 112 40% 2 26.01.2027 -
Dániel Lukács Puskas Akademia Aktiv 108 / 108 40% 2 31.12.2026 -
Mikhail Ignatov Sochi Aktiv 104 / 108 40% 1 31.12.2026 -
Kahraba ENPPI Aktiv 112 / 102 40% 1 29.12.2026 -
Themba Manyama Ajax Cape Town Aktiv 119 / 107 40% 2 26.12.2026 Mehr Infos nötig
Diego Valencia Gornik Leczna Aktiv 103 / 108 40% 3 26.12.2026 -
David Ankeye Zeleznicar Pancevo Aktiv 123 / 109 40% 2 24.12.2026 -
Aaron Collins Milton Keynes Dons Aktiv 126 / 112 40% 1 24.12.2026 -
Fejsal Mulić Novi Pazar Aktiv 116 / 103 40% 1 23.12.2026 -
Leandro Godoy CSKA Sofia Aktiv 112 / 115 40% 2 22.12.2026 -
Hilmir Rafn Mikaelsson Sigma Olomouc Aktiv 119 / 120 40% 2 21.12.2026 Mehr Infos nötig
Alexandr Dolgov Amkar Aktiv 103 / 86 40% 1 21.12.2026 -
Berna CSKA 1948 Aktiv 111 / 120 40% 1 16.12.2026 -
Tedi Cara LNZ Aktiv 107 / 110 40% 1 16.12.2026 -
Lamin Jawo Jablonec Aktiv 114 / 103 40% 2 14.12.2026 -
Matěj Pulkrab Teplice Aktiv 104 / 100 40% 1 14.12.2026 -
Matyáš Kozák Teplice Aktiv 105 / 109 40% 3 12.12.2026 -
Jiří Klíma Mlada Boleslav Aktiv 103 / 114 40% 1 12.12.2026 -
Iwan Morgan Grimsby Town Aktiv 110 / 118 40% 1 11.12.2026 -
Hlompho Modiba Black Aces Aktiv 81 / 100 40% 2 10.12.2026 -
Radek Šiler Podbrezova Aktiv 121 / 115 40% 1 09.12.2026 -
Václav Sejk Sigma Olomouc Aktiv 125 / 112 40% 1 09.12.2026 -
Jonathan Acquah WAFA Aktiv 84 / 83 40% 1 09.12.2026 -
Facundo Suárez Instituto Aktiv 133 / 132 40% 3 07.12.2026 Beobachten
Alexandr Sojka Viktoria Plzen Aktiv 120 / 121 40% 4 03.12.2026 -
Namory Cissé Dukla Prague Aktiv 89 / 97 40% 3 02.12.2026 -
Assad Al Hamlawi Universitatea Craiova Aktiv 128 / 127 40% 4 29.11.2026 -
Ştefan Baiaram Universitatea Craiova Aktiv 117 / 116 40% 3 29.11.2026 -
Ihor Krasnopir Polissia Aktiv 115 / 112 40% 1 25.11.2026 -
Zvonimir Boric Zadar Aktiv 113 / 103 40% 1 23.11.2026 -
Yurii Klymchuk Kolos Aktiv 101 / 114 40% 1 22.11.2026 -
Rodin Quiñónes Dinamo Batumi Aktiv 129 / 104 40% 3 17.11.2026 -
Qara Ozobic Inter Aktiv 118 / 111 40% 1 17.11.2026 -
Nardin Mulahusejnović Vojvodina Aktiv 119 / 115 40% 4 12.11.2026 -
Dino Islamović Rosenborg Aktiv 137 / 106 40% 2 11.11.2026 -
Achraf Bencharki Al Ahly Aktiv 115 / 117 40% 3 09.11.2026 -
Stephen Humphrys Bradford City Aktiv 100 / 114 40% 1 09.11.2026 -
Václav Drchal Bohemians 1905 Aktiv 115 / 103 40% 2 31.10.2026 -
Tyrese Shade Burton Albion Aktiv 98 / 94 40% 1 25.10.2026 -
Egor Bogomolskiy Zira Aktiv 111 / 110 40% 1 25.10.2026 -
Mohamed Ofkir Valerenga Aktiv 110 / 99 40% 4 22.10.2026 -
Paulos Abraham Hammarby Aktiv 122 / 122 40% 2 22.10.2026 -
Patrik Mijić HNK Gorica Aktiv 118 / 104 40% 1 20.10.2026 -
Lukáš Mašek Slovan Liberec Aktiv 109 / 114 40% 1 18.10.2026 -
Razvan Puscas Astra Verloren 107 / 112 40% 3 15.10.2026 -
Vinko Rozić Istra 1961 Aktiv 105 / 121 40% 1 15.10.2026 -
Alibek Aliev CFR Cluj Aktiv 112 / 107 40% 1 14.10.2026 -
Max Fenger IFK Goteborg Aktiv 120 / 117 40% 2 12.10.2026 -
Alberto Soro Dinamo Bucharest Aktiv 125 / 122 40% 1 10.10.2026 -
George Puşcaş Dinamo Bucharest Aktiv 109 / 116 40% 2 07.10.2026 -
Frederik Ihler IF Elfsborg Aktiv 118 / 125 40% 1 06.10.2026 -
Mateo Fernández Angusht Aktiv 85 / 84 40% 1 05.10.2026 -
Ismail Sarki Niger Tornadoes Aktiv 97 / 102 40% 1 05.10.2026 -
Ramiro Ruiz Rodríguez Atlético Tucumán Aktiv 117 / 131 40% 1 30.09.2026 -
Hakeeb Adelakun Doncaster Rovers Aktiv 122 / 99 40% 1 30.09.2026 -
Lukáš Juliš MSK Zilina Aktiv 107 / 105 40% 2 28.09.2026 -
Archil Kakabadze Tskhinvali Aktiv 115 / 116 40% 1 28.09.2026 -
Ibrahim Aliyu Houston Dynamo Aktiv 115 / 110 40% 1 27.09.2026 -
Filip Bundgaard Brondby Aktiv 115 / 124 40% 1 27.09.2026 -
Preston Judd San Jose Earthquakes Aktiv 123 / 114 40% 1 24.09.2026 -
Kristian Eriksen Molde Aktiv 144 / 137 40% 1 21.09.2026 -
Corey Baird CF Montreal Aktiv 121 / 108 40% 1 20.09.2026 -
Derrick Etienne Jr. Toronto FC Aktiv 130 / 123 40% 1 19.09.2026 -
Matthew Hoppe SonderjyskE Aktiv 95 / 115 40% 1 19.09.2026 -
Vladislav Blănuţă Lechia Aktiv 102 / 116 40% 1 19.09.2026 -
Sergio Santos Atlanta United FC Aktiv 129 / 101 40% 1 17.09.2026 -
Samuel Anakwe Remo Stars Aktiv 98 / 101 40% 1 15.09.2026 -
Prince Owusu CF Montreal Aktiv 126 / 105 40% 1 15.09.2026 -
Sead Hakšabanović Malmo FF Aktiv 108 / 114 40% 1 15.09.2026 -
Demba Seck Partizan Aktiv 110 / 124 40% 1 12.09.2026 -
Victor Mbaoma Tusker Aktiv 98 / 88 40% 1 10.09.2026 -
Samuel Adegbenro Dynamo Kyiv Aktiv 122 / 113 40% 1 10.09.2026 -
Darren Yapi Colorado Rapids Aktiv 92 / 97 40% 1 09.09.2026 -
Timothy Zechariah Rivers United Aktiv 81 / 106 40% 1 09.09.2026 -
Jeriel De Santis Caracas Aktiv 106 / 104 40% 1 09.09.2026 -
Daniel Ríos CF Montreal Aktiv 122 / 104 40% 1 07.09.2026 -
Yegor Kortsov Dinamo Brest Aktiv 98 / 100 40% 1 06.09.2026 -
Javi Zarzo Viitorul Aktiv 89 / 97 40% 1 02.09.2026 -
Ivan Schranz Slavia Prague Aktiv 134 / 135 40% 1 01.09.2026 -
Marek Icha Slovan Liberec Aktiv 102 / 113 55% 1 31.08.2026 -
Peter Christiansen Viking Aktiv 126 / 115 40% 1 25.08.2026 -
David Nykrín Jablonec Aktiv 77 / 88 55% 1 24.08.2026 -
Marco Bustillo Zamora Aktiv 104 / 105 40% 1 20.08.2026 -
Rodrigo Pollero Deportivo Tachira Aktiv 102 / 113 40% 1 17.08.2026 -
Dani Ojeda Huesca Aktiv 105 / 109 40% 1 01.08.2026 -